Time;durP1;ratioP1;P1;durP2;ratioP2;P2;SDS_P1;SDS_P2;PMS_P1;PMS_P2;Temp;Humidity;BMP_temperature;BMP_pressure;BME280_temperature;BME280_humidity;BME280_pressure;Samples;Min_cycle;Max_cycle;Signal;HPM_P1;HPM_P2
2023/04/24 00:00:18;;;;;;;4.70;3.90;;;23.80;64.40;;;;;;222206;1259;24082;-47
2023/04/24 00:05:42;;;;;;;5.20;3.90;;;23.90;64.10;;;;;;222130;1253;25217;-49
2023/04/24 00:10:46;;;;;;;4.20;3.20;;;24.00;63.70;;;;;;222486;1256;22503;-46
2023/04/24 00:15:50;;;;;;;4.40;4.00;;;24.10;63.30;;;;;;222213;1260;22668;-47
2023/04/24 00:20:54;;;;;;;4.30;4.00;;;24.20;63.00;;;;;;222158;1253;25325;-46
2023/04/24 00:25:59;;;;;;;5.00;4.10;;;24.30;62.70;;;;;;222479;1253;22575;-47
2023/04/24 00:31:03;;;;;;;5.00;3.70;;;24.40;62.40;;;;;;222509;1246;24359;-48
2023/04/24 00:36:07;;;;;;;4.40;3.80;;;24.50;62.20;;;;;;222175;1260;22508;-47
2023/04/24 00:41:11;;;;;;;4.30;3.90;;;24.50;62.10;;;;;;222348;1259;22516;-45
2023/04/24 00:46:16;;;;;;;4.80;4.20;;;24.50;62.80;;;;;;222175;1260;22703;-48
2023/04/24 00:51:20;;;;;;;6.50;3.90;;;24.40;62.20;;;;;;222361;1254;22521;-45
2023/04/24 00:56:25;;;;;;;6.70;3.70;;;24.30;62.70;;;;;;222233;1253;23899;-50
2023/04/24 01:01:30;;;;;;;6.80;3.80;;;24.30;62.50;;;;;;222459;1258;22504;-46
2023/04/24 01:06:34;;;;;;;4.80;3.90;;;24.20;62.50;;;;;;222414;1254;24212;-45
2023/04/24 01:11:41;;;;;;;4.50;3.80;;;24.20;62.50;;;;;;222345;1264;22535;-47
2023/04/24 01:16:47;;;;;;;5.10;4.30;;;24.10;62.80;;;;;;222347;1260;22650;-47
2023/04/24 01:21:54;;;;;;;4.40;3.90;;;24.20;62.30;;;;;;222399;1263;23883;-46
2023/04/24 01:26:58;;;;;;;4.50;3.90;;;24.30;62.20;;;;;;222567;1260;24362;-48
2023/04/24 01:32:04;;;;;;;4.40;4.00;;;24.30;62.00;;;;;;222198;1260;22510;-49
2023/04/24 01:37:07;;;;;;;5.00;3.50;;;24.30;62.10;;;;;;222213;1253;22505;-47
2023/04/24 01:42:13;;;;;;;4.30;3.50;;;24.40;61.90;;;;;;222082;1258;24316;-47
2023/04/24 01:47:17;;;;;;;4.60;3.60;;;24.50;61.90;;;;;;222570;1263;22622;-47
2023/04/24 01:52:21;;;;;;;6.10;3.50;;;24.50;61.70;;;;;;222436;1263;24190;-45
2023/04/24 01:57:26;;;;;;;4.60;4.00;;;24.60;61.70;;;;;;222338;1254;24183;-48
2023/04/24 02:02:30;;;;;;;4.20;3.90;;;24.60;61.70;;;;;;222220;1265;25351;-46
2023/04/24 02:07:34;;;;;;;4.20;3.80;;;24.60;61.80;;;;;;222325;1256;22504;-46
2023/04/24 02:12:38;;;;;;;4.70;3.60;;;24.60;61.70;;;;;;222271;1254;23872;-46
2023/04/24 02:17:43;;;;;;;4.50;4.10;;;24.60;61.50;;;;;;222437;1263;22526;-48
2023/04/24 02:22:47;;;;;;;4.40;3.80;;;24.60;61.50;;;;;;222256;1259;24196;-47
2023/04/24 02:27:51;;;;;;;5.50;3.70;;;24.50;61.80;;;;;;222218;1259;22531;-47
2023/04/24 02:32:55;;;;;;;3.70;3.40;;;24.40;62.00;;;;;;222246;1259;24283;-49
2023/04/24 02:37:59;;;;;;;3.80;3.50;;;24.30;62.10;;;;;;222389;1258;25498;-48
2023/04/24 02:43:03;;;;;;;3.20;3.00;;;24.30;62.10;;;;;;222393;1260;22618;-46
2023/04/24 02:48:07;;;;;;;3.70;3.40;;;24.30;61.90;;;;;;222432;1253;22756;-45
2023/04/24 02:53:11;;;;;;;5.10;4.10;;;24.30;61.70;;;;;;221962;1253;22517;-45
2023/04/24 02:58:17;;;;;;;4.10;3.40;;;24.40;61.50;;;;;;222122;1254;22508;-46
2023/04/24 03:03:21;;;;;;;4.20;3.80;;;24.40;61.10;;;;;;222268;1254;22505;-47
2023/04/24 03:08:25;;;;;;;4.50;4.10;;;24.40;61.40;;;;;;221918;1264;22632;-46
2023/04/24 03:13:29;;;;;;;4.30;3.80;;;24.30;63.20;;;;;;221952;1254;22533;-51
2023/04/24 03:18:34;;;;;;;4.80;4.30;;;24.20;62.60;;;;;;222157;1257;22620;-49
2023/04/24 03:23:39;;;;;;;5.60;4.10;;;24.10;62.30;;;;;;222332;1263;22526;-49
2023/04/24 03:28:43;;;;;;;5.10;4.50;;;24.10;62.90;;;;;;222049;1269;24236;-47
2023/04/24 03:33:47;;;;;;;4.70;4.10;;;24.00;62.50;;;;;;222522;1256;23845;-47
2023/04/24 03:38:52;;;;;;;4.60;4.20;;;23.90;62.90;;;;;;222345;1254;22522;-46
2023/04/24 03:44:05;;;;;;;5.10;4.60;;;23.90;62.70;;;;;;222239;1253;22545;-46
2023/04/24 03:49:10;;;;;;;4.50;4.10;;;23.90;63.00;;;;;;222566;1253;24324;-47
2023/04/24 03:54:18;;;;;;;5.00;4.50;;;23.90;62.60;;;;;;222443;1266;24043;-46
2023/04/24 03:59:22;;;;;;;6.40;5.40;;;23.80;62.90;;;;;;222302;1259;22519;-47
2023/04/24 04:04:36;;;;;;;4.60;4.20;;;23.80;62.90;;;;;;222207;1263;22644;-45
2023/04/24 04:09:41;;;;;;;5.50;4.90;;;23.70;63.00;;;;;;222201;1266;22533;-48
2023/04/24 04:14:46;;;;;;;5.40;4.60;;;23.70;63.00;;;;;;222145;1266;22639;-49
2023/04/24 04:19:50;;;;;;;5.70;4.50;;;23.70;63.20;;;;;;222385;1263;22505;-46
2023/04/24 04:24:54;;;;;;;5.90;5.40;;;23.70;62.90;;;;;;222419;1254;22517;-47
2023/04/24 04:30:04;;;;;;;5.00;4.60;;;23.70;63.10;;;;;;222376;1264;25525;-46
2023/04/24 04:35:16;;;;;;;5.10;4.40;;;23.70;63.20;;;;;;222400;1254;24316;-48
2023/04/24 04:40:20;;;;;;;5.70;5.00;;;23.60;62.90;;;;;;222493;1264;22527;-59
2023/04/24 04:45:34;;;;;;;5.00;4.50;;;23.60;62.90;;;;;;222196;1261;22514;-58
2023/04/24 04:51:07;;;;;;;5.40;4.80;;;23.60;63.40;;;;;;222300;1261;22614;-56
2023/04/24 04:56:12;;;;;;;5.60;5.10;;;23.60;63.00;;;;;;222210;1260;22519;-58
2023/04/24 05:01:19;;;;;;;7.90;4.70;;;23.50;63.60;;;;;;222640;1261;22677;-60
2023/04/24 05:06:24;;;;;;;5.40;4.90;;;23.50;63.60;;;;;;222665;1263;22517;-58
2023/04/24 05:11:29;;;;;;;6.00;4.70;;;23.40;63.80;;;;;;222585;1254;22463;-57
2023/04/24 05:16:33;;;;;;;5.30;4.80;;;23.40;63.70;;;;;;222470;1253;22623;-59
2023/04/24 05:21:39;;;;;;;5.60;4.60;;;23.40;64.20;;;;;;222395;1262;22524;-57
2023/04/24 05:26:43;;;;;;;5.30;4.80;;;23.40;63.60;;;;;;222403;1261;25335;-57
2023/04/24 05:31:48;;;;;;;4.80;4.30;;;23.40;64.00;;;;;;222296;1256;22549;-56
2023/04/24 05:36:53;;;;;;;5.70;5.20;;;23.40;63.90;;;;;;222210;1261;22511;-57
2023/04/24 05:41:58;;;;;;;5.20;4.50;;;23.40;63.80;;;;;;222264;1264;22518;-58
2023/04/24 05:47:02;;;;;;;5.30;4.70;;;23.40;64.10;;;;;;222434;1266;22617;-58
2023/04/24 05:52:08;;;;;;;6.10;4.60;;;23.40;63.80;;;;;;222288;1248;22637;-59
2023/04/24 05:57:13;;;;;;;5.70;4.40;;;23.30;63.70;;;;;;222363;1257;24122;-61
2023/04/24 06:02:25;;;;;;;4.90;4.40;;;23.30;63.70;;;;;;222333;1263;22750;-59
2023/04/24 06:07:31;;;;;;;12.40;4.90;;;23.30;63.80;;;;;;222116;1262;22548;-55
2023/04/24 06:12:37;;;;;;;5.60;4.50;;;23.40;63.80;;;;;;222315;1262;24069;-52
2023/04/24 06:17:46;;;;;;;9.80;4.10;;;23.40;64.30;;;;;;222391;1260;22514;-52
2023/04/24 06:22:51;;;;;;;4.80;4.30;;;23.40;64.70;;;;;;222470;1263;22696;-50
2023/04/24 06:27:56;;;;;;;5.00;4.20;;;23.40;63.90;;;;;;222088;1251;215257;-49
2023/04/24 06:33:00;;;;;;;7.40;4.70;;;23.40;64.00;;;;;;222141;1266;22498;-53
2023/04/24 06:38:21;;;;;;;8.10;5.00;;;23.40;63.80;;;;;;222296;1266;22656;-53
2023/04/24 06:43:25;;;;;;;4.70;4.30;;;23.60;63.80;;;;;;222150;1254;23911;-52
2023/04/24 06:48:29;;;;;;;5.60;4.80;;;23.40;63.50;;;;;;222314;1263;24331;-54
2023/04/24 06:53:34;;;;;;;11.60;4.90;;;23.60;63.80;;;;;;222205;1263;22631;-50
2023/04/24 06:58:38;;;;;;;7.30;4.50;;;23.60;64.30;;;;;;222591;1254;22573;-54
2023/04/24 07:03:42;;;;;;;11.90;5.20;;;23.50;64.60;;;;;;222174;1260;22563;-49
2023/04/24 07:08:47;;;;;;;8.70;4.70;;;23.40;63.90;;;;;;222921;1269;23183;-51
2023/04/24 07:13:51;;;;;;;13.60;4.80;;;23.40;63.80;;;;;;222294;1262;24210;-49
2023/04/24 07:18:55;;;;;;;7.10;3.80;;;23.40;64.40;;;;;;222446;1266;22520;-49
2023/04/24 07:24:00;;;;;;;4.60;4.20;;;23.40;64.10;;;;;;222021;1263;24244;-52
2023/04/24 07:29:04;;;;;;;15.10;5.50;;;23.50;63.30;;;;;;222370;1248;26145;-52
2023/04/24 07:34:08;;;;;;;7.30;4.40;;;23.50;63.30;;;;;;222002;1264;24573;-51
2023/04/24 07:39:12;;;;;;;5.80;4.10;;;23.50;63.50;;;;;;222464;1264;24375;-49
2023/04/24 07:44:16;;;;;;;8.50;3.70;;;23.60;63.40;;;;;;222162;1264;22524;-52
2023/04/24 07:49:20;;;;;;;6.70;4.60;;;23.50;63.20;;;;;;222196;1268;24199;-51
2023/04/24 07:54:24;;;;;;;8.00;3.80;;;23.50;63.40;;;;;;222117;1269;22742;-53
2023/04/24 07:59:28;;;;;;;6.00;4.20;;;23.50;63.40;;;;;;222487;1260;23921;-52
2023/04/24 08:04:32;;;;;;;5.00;4.50;;;23.40;63.50;;;;;;221984;1253;24230;-53
2023/04/24 08:09:36;;;;;;;5.20;4.60;;;23.40;64.00;;;;;;222398;1266;22616;-52
2023/04/24 08:14:41;;;;;;;5.30;4.80;;;23.50;63.80;;;;;;221983;1264;22508;-50
2023/04/24 08:19:48;;;;;;;5.80;4.30;;;23.50;63.70;;;;;;222340;1263;24186;-47
2023/04/24 08:24:52;;;;;;;4.70;4.10;;;23.50;63.70;;;;;;222395;1258;22515;-48
2023/04/24 08:29:57;;;;;;;6.80;4.10;;;23.50;63.90;;;;;;222354;1263;22524;-51
2023/04/24 08:35:03;;;;;;;7.40;4.30;;;23.60;63.80;;;;;;222172;1263;24206;-49
2023/04/24 08:40:16;;;;;;;6.60;4.40;;;23.50;63.50;;;;;;222175;1263;22525;-49
2023/04/24 08:45:20;;;;;;;5.10;4.30;;;23.50;63.90;;;;;;222112;1266;24240;-54
2023/04/24 08:50:25;;;;;;;6.30;4.20;;;23.50;63.30;;;;;;221995;1263;22646;-48
2023/04/24 08:55:30;;;;;;;4.40;3.90;;;23.60;63.10;;;;;;222195;1263;22533;-48
2023/04/24 09:00:35;;;;;;;4.80;4.20;;;23.60;63.10;;;;;;222225;1266;23905;-53
2023/04/24 09:05:40;;;;;;;4.20;3.60;;;23.60;63.00;;;;;;222280;1269;23916;-52
2023/04/24 09:10:45;;;;;;;5.10;3.90;;;23.60;63.10;;;;;;222360;1264;24193;-51
2023/04/24 09:15:52;;;;;;;8.30;3.70;;;23.60;63.10;;;;;;222244;1263;25259;-51
2023/04/24 09:21:04;;;;;;;4.70;3.70;;;23.60;63.30;;;;;;222239;1266;25149;-51
2023/04/24 09:26:10;;;;;;;5.50;3.90;;;23.70;63.00;;;;;;222050;1267;24334;-51
2023/04/24 09:31:18;;;;;;;4.30;3.90;;;23.60;63.20;;;;;;222231;1264;22521;-51
2023/04/24 09:36:38;;;;;;;5.80;4.00;;;23.50;63.50;;;;;;222214;1264;24183;-49
2023/04/24 09:41:55;;;;;;;4.70;4.30;;;23.50;63.70;;;;;;221825;1263;22531;-53
2023/04/24 09:47:00;;;;;;;5.70;3.70;;;23.60;63.60;;;;;;222090;1264;24385;-49
2023/04/24 09:52:11;;;;;;;4.00;3.60;;;23.60;63.40;;;;;;222098;1264;26293;-51
2023/04/24 09:57:15;;;;;;;4.30;3.90;;;23.60;63.40;;;;;;222290;1266;22541;-53
2023/04/24 10:02:20;;;;;;;4.10;3.80;;;23.60;63.70;;;;;;222149;1257;23915;-47
2023/04/24 10:07:28;;;;;;;6.60;3.70;;;23.60;63.10;;;;;;222471;1260;25388;-48
2023/04/24 10:12:33;;;;;;;5.50;3.20;;;23.60;63.10;;;;;;222275;1257;22616;-54
2023/04/24 10:17:39;;;;;;;4.20;3.60;;;23.80;63.00;;;;;;222355;1263;25902;-53
2023/04/24 10:22:49;;;;;;;17.90;3.80;;;23.70;62.80;;;;;;222293;1264;26606;-50
2023/04/24 10:27:59;;;;;;;6.90;4.00;;;23.60;64.10;;;;;;222238;1264;22761;-53
2023/04/24 10:33:06;;;;;;;6.80;4.20;;;23.70;64.10;;;;;;222503;1254;22640;-49
2023/04/24 10:38:16;;;;;;;6.80;3.70;;;23.70;64.00;;;;;;222443;1264;22639;-51
2023/04/24 10:43:20;;;;;;;6.70;3.60;;;23.70;64.00;;;;;;222001;1266;22742;-52
2023/04/24 10:48:27;;;;;;;7.50;5.70;;;23.60;63.50;;;;;;222569;1254;24173;-52
2023/04/24 10:53:35;;;;;;;5.40;3.40;;;23.60;63.30;;;;;;222213;1264;22534;-54
2023/04/24 10:58:43;;;;;;;4.30;3.80;;;23.60;63.50;;;;;;222072;1263;24181;-54
2023/04/24 11:03:54;;;;;;;4.30;3.90;;;23.70;62.80;;;;;;222533;1269;24652;-53
2023/04/24 11:09:07;;;;;;;5.80;3.60;;;23.70;63.00;;;;;;222364;1264;22527;-51
2023/04/24 11:14:15;;;;;;;3.80;3.50;;;23.70;63.20;;;;;;222482;1255;22513;-51
2023/04/24 11:19:24;;;;;;;4.30;3.50;;;23.70;62.90;;;;;;222728;1258;22512;-53
2023/04/24 11:24:37;;;;;;;4.50;3.50;;;23.70;62.60;;;;;;222453;1254;24204;-51
2023/04/24 11:29:45;;;;;;;10.80;4.00;;;23.70;62.60;;;;;;222450;1257;24156;-49
2023/04/24 11:34:58;;;;;;;4.70;3.50;;;23.70;62.30;;;;;;222632;1254;25326;-51
2023/04/24 11:40:03;;;;;;;;;;;23.70;62.60;;;;;;222852;1254;24357;-52
2023/04/24 11:45:15;;;;;;;3.90;3.40;;;23.70;62.00;;;;;;222388;1254;24329;-52
2023/04/24 11:50:22;;;;;;;3.50;3.20;;;23.60;62.00;;;;;;222492;1254;22525;-55
2023/04/24 11:55:28;;;;;;;3.50;3.20;;;23.70;62.60;;;;;;222440;1264;24233;-54
2023/04/24 12:00:36;;;;;;;3.70;3.10;;;23.70;61.80;;;;;;222449;1257;22636;-50
2023/04/24 12:05:40;;;;;;;4.10;3.60;;;23.70;61.70;;;;;;222423;1254;25211;-52
2023/04/24 12:10:51;;;;;;;3.60;3.20;;;23.70;61.90;;;;;;222521;1263;22529;-52
2023/04/24 12:15:57;;;;;;;3.30;3.10;;;23.70;61.70;;;;;;222178;1257;25313;-50
2023/04/24 12:21:23;;;;;;;3.30;3.00;;;23.70;61.80;;;;;;222466;1257;24346;-53
2023/04/24 12:26:28;;;;;;;3.30;3.00;;;23.60;61.70;;;;;;222763;1258;22637;-50
2023/04/24 12:31:32;;;;;;;4.00;3.50;;;23.70;61.70;;;;;;222247;1253;25383;-54
2023/04/24 12:36:37;;;;;;;3.90;3.10;;;23.60;61.60;;;;;;222462;1263;24212;-50
2023/04/24 12:41:51;;;;;;;3.10;2.90;;;23.60;61.60;;;;;;222409;1258;22512;-53
2023/04/24 12:46:55;;;;;;;3.50;3.20;;;23.60;61.70;;;;;;222208;1264;24202;-53
2023/04/24 12:51:59;;;;;;;4.10;3.80;;;23.50;61.60;;;;;;222268;1254;22640;-51
2023/04/24 12:57:03;;;;;;;3.30;3.10;;;23.50;61.50;;;;;;222274;1254;24374;-53
2023/04/24 13:02:09;;;;;;;3.20;2.90;;;23.50;61.50;;;;;;222100;1255;22519;-52
2023/04/24 13:07:14;;;;;;;4.00;3.60;;;23.40;61.40;;;;;;222127;1266;24331;-52
2023/04/24 13:12:19;;;;;;;3.10;2.90;;;23.50;61.50;;;;;;222664;1266;26193;-54
2023/04/24 13:17:23;;;;;;;3.40;3.20;;;23.40;61.30;;;;;;222684;1254;24264;-53
2023/04/24 13:22:27;;;;;;;3.40;3.00;;;23.40;61.20;;;;;;222393;1263;22577;-54
2023/04/24 13:27:31;;;;;;;3.40;3.10;;;23.40;61.10;;;;;;222329;1263;22524;-55
2023/04/24 13:32:36;;;;;;;3.30;3.00;;;23.40;61.60;;;;;;222202;1257;22615;-53
2023/04/24 13:37:40;;;;;;;3.70;3.40;;;23.40;61.10;;;;;;222532;1266;25371;-56
2023/04/24 13:42:44;;;;;;;3.30;3.10;;;23.40;61.10;;;;;;222286;1253;22756;-54
2023/04/24 13:47:48;;;;;;;3.10;2.90;;;23.40;61.10;;;;;;222285;1253;22564;-50
2023/04/24 13:52:56;;;;;;;3.10;2.90;;;23.40;61.00;;;;;;222476;1263;22513;-52
2023/04/24 13:58:02;;;;;;;2.90;2.70;;;23.40;61.30;;;;;;222498;1263;24356;-52
2023/04/24 14:03:06;;;;;;;2.90;2.70;;;23.30;60.80;;;;;;222333;1262;22637;-51
2023/04/24 14:08:10;;;;;;;2.80;2.60;;;23.30;60.70;;;;;;222379;1263;22533;-53
2023/04/24 14:13:15;;;;;;;7.40;3.40;;;23.30;60.90;;;;;;222406;1257;26021;-51
2023/04/24 14:18:19;;;;;;;8.00;3.20;;;23.40;61.00;;;;;;222296;1266;25605;-52
2023/04/24 14:23:23;;;;;;;9.10;3.10;;;23.50;61.20;;;;;;222266;1263;24163;-53
2023/04/24 14:28:28;;;;;;;7.20;2.90;;;23.40;61.30;;;;;;222466;1263;22521;-53
2023/04/24 14:33:32;;;;;;;6.90;2.70;;;23.40;61.30;;;;;;222475;1263;22518;-53
2023/04/24 14:38:37;;;;;;;5.70;3.50;;;23.30;62.10;;;;;;222434;1266;22564;-54
2023/04/24 14:43:41;;;;;;;4.00;2.90;;;23.20;62.80;;;;;;222155;1253;24186;-53
2023/04/24 14:48:45;;;;;;;3.50;3.10;;;23.40;63.40;;;;;;222424;1253;24222;-56
2023/04/24 14:53:49;;;;;;;4.10;3.00;;;23.40;63.60;;;;;;222158;1253;22643;-53
2023/04/24 14:58:53;;;;;;;3.40;3.00;;;23.40;63.20;;;;;;222465;1256;22716;-54
2023/04/24 15:03:57;;;;;;;6.60;2.80;;;23.40;63.60;;;;;;222615;1257;22786;-54
2023/04/24 15:09:02;;;;;;;3.10;2.80;;;23.40;63.80;;;;;;222579;1263;24067;-51
2023/04/24 15:14:06;;;;;;;3.30;3.10;;;23.40;63.30;;;;;;222424;1256;22528;-51
2023/04/24 15:19:10;;;;;;;3.30;3.00;;;23.40;63.40;;;;;;222312;1253;22727;-55
2023/04/24 15:24:15;;;;;;;14.20;7.60;;;23.40;63.70;;;;;;222466;1266;25268;-52
2023/04/24 15:29:19;;;;;;;94.60;36.30;;;23.50;65.30;;;;;;222547;1253;24212;-52
2023/04/24 15:34:24;;;;;;;128.90;52.80;;;23.60;67.00;;;;;;222481;1264;22513;-55
2023/04/24 15:39:28;;;;;;;231.30;87.20;;;23.60;67.90;;;;;;222498;1253;22508;-51
2023/04/24 15:44:32;;;;;;;187.50;74.70;;;23.60;69.30;;;;;;222519;1254;22979;-51
2023/04/24 15:49:36;;;;;;;165.00;67.40;;;23.70;68.70;;;;;;222500;1253;23161;-49
2023/04/24 15:54:40;;;;;;;156.90;64.20;;;23.60;67.40;;;;;;222351;1254;23943;-53
2023/04/24 15:59:45;;;;;;;146.30;60.60;;;23.40;67.60;;;;;;222387;1254;22656;-55
2023/04/24 16:04:50;;;;;;;149.50;60.20;;;23.50;67.10;;;;;;222413;1260;24052;-55
2023/04/24 16:09:54;;;;;;;139.70;58.50;;;23.60;66.20;;;;;;222428;1262;22640;-52
2023/04/24 16:15:00;;;;;;;121.70;51.10;;;23.70;65.80;;;;;;222387;1257;22639;-53
2023/04/24 16:20:06;;;;;;;118.30;51.00;;;23.70;65.50;;;;;;222425;1253;22518;-53
2023/04/24 16:25:11;;;;;;;119.80;50.60;;;23.70;65.20;;;;;;222486;1260;26543;-55
2023/04/24 16:30:15;;;;;;;120.60;51.90;;;23.60;65.10;;;;;;222491;1253;22669;-56
2023/04/24 16:35:19;;;;;;;105.20;47.10;;;23.30;65.80;;;;;;222445;1254;25472;-50
2023/04/24 16:40:25;;;;;;;108.50;46.90;;;23.30;65.80;;;;;;222304;1260;22593;-53
2023/04/24 16:45:29;;;;;;;99.10;44.10;;;23.30;65.60;;;;;;222731;1263;25353;-50
2023/04/24 16:50:33;;;;;;;100.30;43.90;;;23.30;65.20;;;;;;222086;1253;22546;-46
2023/04/24 16:55:38;;;;;;;94.70;42.10;;;23.50;65.00;;;;;;223085;1263;25671;-46
2023/04/24 17:00:44;;;;;;;101.50;42.50;;;23.60;64.30;;;;;;222455;1261;24254;-48
2023/04/24 17:05:49;;;;;;;81.40;36.50;;;23.60;64.30;;;;;;222492;1263;25597;-46
2023/04/24 17:10:56;;;;;;;78.90;37.60;;;23.40;64.30;;;;;;222577;1247;23828;-50
2023/04/24 17:16:02;;;;;;;84.20;36.80;;;23.40;64.20;;;;;;222407;1254;24224;-44
2023/04/24 17:21:09;;;;;;;83.80;38.30;;;23.40;63.50;;;;;;221472;1259;24166;-45
2023/04/24 17:26:15;;;;;;;75.80;36.50;;;23.30;64.20;;;;;;221396;1259;22514;-50
2023/04/24 17:31:21;;;;;;;85.70;34.80;;;23.30;64.40;;;;;;221212;1262;24233;-47
2023/04/24 17:36:30;;;;;;;72.60;33.40;;;23.30;64.00;;;;;;221230;1251;22524;-45
2023/04/24 17:41:34;;;;;;;68.20;31.10;;;23.40;64.70;;;;;;221239;1268;25641;-46
2023/04/24 17:46:40;;;;;;;66.00;29.50;;;23.40;63.90;;;;;;222180;1260;22514;-45
2023/04/24 17:51:49;;;;;;;69.50;31.40;;;23.30;63.40;;;;;;222512;1253;25377;-48
2023/04/24 17:56:54;;;;;;;60.70;29.90;;;23.30;64.00;;;;;;222416;1254;24190;-49
2023/04/24 18:01:59;;;;;;;62.80;29.60;;;23.30;63.90;;;;;;222599;1247;23886;-46
2023/04/24 18:07:05;;;;;;;55.10;26.40;;;23.30;63.90;;;;;;222414;1260;23891;-46
2023/04/24 18:12:10;;;;;;;59.50;27.70;;;23.50;63.80;;;;;;222225;1253;24311;-46
2023/04/24 18:17:16;;;;;;;55.50;26.20;;;23.60;63.30;;;;;;222276;1254;24363;-45
2023/04/24 18:22:21;;;;;;;45.30;23.90;;;23.40;63.60;;;;;;222771;1253;22656;-45
2023/04/24 18:27:29;;;;;;;50.50;24.00;;;23.40;63.80;;;;;;222245;1260;394988;-46
2023/04/24 18:32:37;;;;;;;49.80;25.00;;;23.30;65.10;;;;;;222454;1259;23908;-47
2023/04/24 18:37:45;;;;;;;41.80;22.40;;;23.20;64.80;;;;;;222278;1253;25473;-48
2023/04/24 18:42:51;;;;;;;44.90;22.80;;;23.20;65.20;;;;;;222195;1259;24286;-50
2023/04/24 18:47:56;;;;;;;52.50;22.30;;;23.10;65.30;;;;;;222225;1254;22518;-47
2023/04/24 18:53:02;;;;;;;40.40;20.70;;;23.40;64.30;;;;;;222662;1253;22520;-47
2023/04/24 18:58:08;;;;;;;39.60;21.50;;;23.40;63.80;;;;;;222315;1260;22517;-45
2023/04/24 19:03:13;;;;;;;45.20;20.90;;;23.50;63.70;;;;;;222594;1256;22514;-46
2023/04/24 19:08:19;;;;;;;31.90;18.40;;;23.50;63.70;;;;;;222787;1263;25340;-50
2023/04/24 19:13:25;;;;;;;33.50;18.00;;;23.50;63.20;;;;;;222404;1257;25658;-46
2023/04/24 19:18:31;;;;;;;36.90;18.40;;;23.60;63.40;;;;;;222445;1257;24288;-50
2023/04/24 19:23:39;;;;;;;36.30;18.10;;;23.50;63.90;;;;;;222526;1263;24263;-46
2023/04/24 19:28:44;;;;;;;40.60;18.40;;;23.50;63.30;;;;;;222616;1263;22524;-47
2023/04/24 19:33:50;;;;;;;31.20;18.20;;;23.50;64.40;;;;;;222496;1256;25339;-48
2023/04/24 19:38:55;;;;;;;38.20;17.40;;;23.40;64.00;;;;;;221962;1254;22510;-47
2023/04/24 19:44:04;;;;;;;30.50;16.50;;;23.30;64.20;;;;;;222202;1263;25632;-47
2023/04/24 19:49:10;;;;;;;29.50;17.40;;;23.30;64.50;;;;;;222284;1256;24193;-46
2023/04/24 19:54:15;;;;;;;32.90;17.60;;;23.30;64.50;;;;;;222197;1263;24286;-44
2023/04/24 19:59:20;;;;;;;25.50;14.90;;;23.20;64.70;;;;;;222092;1250;22621;-45
2023/04/24 20:04:25;;;;;;;27.70;16.00;;;23.40;64.30;;;;;;222016;1259;25087;-50
2023/04/24 20:09:30;;;;;;;26.80;15.90;;;23.40;64.30;;;;;;221939;1259;25256;-49
2023/04/24 20:14:35;;;;;;;25.00;15.80;;;23.40;64.40;;;;;;222011;1253;25325;-51
2023/04/24 20:19:40;;;;;;;27.10;15.50;;;23.40;63.80;;;;;;222412;1262;24330;-49
2023/04/24 20:24:46;;;;;;;25.80;14.90;;;23.30;63.70;;;;;;222025;1269;25316;-50
2023/04/24 20:29:50;;;;;;;24.70;14.80;;;23.30;63.90;;;;;;222521;1263;24254;-53
2023/04/24 20:34:54;;;;;;;23.80;14.40;;;23.30;63.90;;;;;;222085;1257;22996;-51
2023/04/24 20:39:58;;;;;;;27.90;14.90;;;23.20;63.80;;;;;;221987;1261;23880;-50
2023/04/24 20:45:03;;;;;;;24.50;15.00;;;23.20;64.20;;;;;;222096;1269;23780;-51
2023/04/24 20:50:08;;;;;;;28.10;14.00;;;23.10;64.10;;;;;;222391;1254;22541;-51
2023/04/24 20:55:13;;;;;;;29.10;15.20;;;23.20;66.40;;;;;;222319;1253;24184;-51
2023/04/24 21:00:18;;;;;;;22.30;14.00;;;23.30;66.30;;;;;;222176;1253;22634;-47
2023/04/24 21:05:22;;;;;;;20.40;13.30;;;23.30;65.90;;;;;;222027;1266;25211;-50
2023/04/24 21:10:26;;;;;;;24.90;13.30;;;23.30;65.50;;;;;;222332;1263;22521;-54
2023/04/24 21:15:30;;;;;;;19.10;12.40;;;23.20;65.30;;;;;;221876;1263;23923;-49
2023/04/24 21:20:34;;;;;;;22.90;13.30;;;23.10;65.30;;;;;;221995;1256;22510;-49
2023/04/24 21:25:38;;;;;;;18.70;12.10;;;23.10;65.90;;;;;;222066;1256;24173;-47
2023/04/24 21:30:43;;;;;;;19.50;12.10;;;23.30;65.40;;;;;;223149;1257;22537;-49
2023/04/24 21:35:47;;;;;;;18.60;11.70;;;23.40;64.80;;;;;;222316;1254;22511;-50
2023/04/24 21:40:51;;;;;;;18.90;12.50;;;23.40;64.80;;;;;;222396;1257;22514;-49
2023/04/24 21:45:55;;;;;;;19.50;12.00;;;23.30;65.00;;;;;;222331;1262;24427;-52
2023/04/24 21:50:59;;;;;;;16.60;10.90;;;23.40;64.80;;;;;;222142;1259;22512;-47
2023/04/24 21:56:04;;;;;;;20.00;11.60;;;23.30;64.80;;;;;;222145;1257;22558;-49
2023/04/24 22:01:08;;;;;;;17.20;11.00;;;23.40;65.10;;;;;;222262;1257;24160;-50
2023/04/24 22:06:13;;;;;;;17.70;10.80;;;23.30;64.70;;;;;;222297;1263;24200;-48
2023/04/24 22:11:17;;;;;;;14.60;10.70;;;23.20;64.90;;;;;;222308;1263;22533;-48
2023/04/24 22:16:29;;;;;;;17.50;10.70;;;23.30;64.40;;;;;;222408;1263;25921;-51
2023/04/24 22:21:34;;;;;;;22.50;10.90;;;23.20;65.00;;;;;;222531;1263;23175;-50
2023/04/24 22:26:38;;;;;;;21.50;12.10;;;23.10;65.90;;;;;;222579;1259;22513;-47
2023/04/24 22:31:43;;;;;;;16.30;10.40;;;23.10;66.40;;;;;;222491;1263;23924;-47
2023/04/24 22:36:47;;;;;;;20.20;9.60;;;23.40;65.50;;;;;;222429;1257;24205;-46
2023/04/24 22:41:51;;;;;;;15.50;9.40;;;23.60;64.60;;;;;;222470;1261;22524;-51
2023/04/24 22:46:56;;;;;;;11.80;8.60;;;23.70;64.30;;;;;;222151;1263;22522;-46
2023/04/24 22:52:03;;;;;;;15.00;9.30;;;23.80;63.90;;;;;;222488;1256;25234;-47
2023/04/24 22:57:08;;;;;;;13.90;8.90;;;23.90;63.60;;;;;;222265;1263;22951;-50
2023/04/24 23:02:12;;;;;;;12.10;8.60;;;24.00;63.30;;;;;;222170;1263;22514;-48
2023/04/24 23:07:17;;;;;;;10.50;7.60;;;24.10;63.00;;;;;;222413;1263;22767;-49
2023/04/24 23:12:21;;;;;;;12.80;8.20;;;24.20;63.10;;;;;;222000;1269;24253;-47
2023/04/24 23:17:25;;;;;;;11.90;7.70;;;24.20;62.50;;;;;;222187;1256;24237;-47
2023/04/24 23:22:29;;;;;;;12.10;8.30;;;24.30;62.40;;;;;;222156;1264;22509;-45
2023/04/24 23:27:34;;;;;;;11.70;8.00;;;24.30;62.30;;;;;;222160;1257;23896;-46
2023/04/24 23:32:38;;;;;;;10.00;7.40;;;24.30;62.30;;;;;;222353;1263;24018;-47
2023/04/24 23:37:42;;;;;;;10.00;7.40;;;24.30;62.40;;;;;;222073;1266;22525;-47
2023/04/24 23:42:46;;;;;;;10.60;7.10;;;24.20;62.50;;;;;;222404;1260;23882;-48
2023/04/24 23:48:03;;;;;;;9.00;7.00;;;24.20;62.80;;;;;;222538;1254;22593;-47
2023/04/24 23:53:07;;;;;;;12.70;7.60;;;24.10;63.00;;;;;;222409;1257;22555;-46
2023/04/24 23:58:12;;;;;;;11.60;7.00;;;24.00;63.80;;;;;;222211;1266;22527;-50
